createdAt,value
2024-01-09T00:00:35.355Z,12.82
2024-01-09T00:03:24.110Z,11.52
2024-01-09T00:05:51.548Z,14.02
2024-01-09T00:08:18.943Z,12.85
2024-01-09T00:10:46.350Z,13.07
2024-01-09T00:13:13.616Z,14.30
2024-01-09T00:15:41.038Z,12.77
2024-01-09T00:18:08.337Z,10.60
2024-01-09T00:20:37.073Z,15.23
2024-01-09T00:23:04.553Z,13.45
2024-01-09T00:25:32.100Z,11.23
2024-01-09T00:27:59.792Z,12.18
2024-01-09T00:30:27.174Z,15.43
2024-01-09T00:32:54.629Z,11.73
2024-01-09T00:35:22.196Z,13.63
2024-01-09T00:37:50.780Z,11.25
2024-01-09T00:40:18.449Z,13.63
2024-01-09T00:42:45.578Z,15.75
2024-01-09T00:45:12.936Z,12.68
2024-01-09T00:47:40.247Z,11.77
2024-01-09T00:50:08.230Z,15.10
2024-01-09T00:52:35.540Z,11.60
2024-01-09T00:55:04.938Z,15.38
2024-01-09T00:57:31.964Z,13.82
2024-01-09T00:59:59.383Z,12.95
2024-01-09T01:02:26.666Z,12.38
2024-01-09T01:04:54.193Z,13.75
2024-01-09T01:07:21.337Z,13.43
2024-01-09T01:09:48.669Z,11.10
2024-01-09T01:12:17.155Z,13.48
2024-01-09T01:14:44.703Z,11.85
2024-01-09T01:17:11.999Z,12.82
2024-01-09T01:19:39.472Z,10.45
2024-01-09T01:22:06.695Z,12.93
2024-01-09T01:24:34.096Z,11.82
2024-01-09T01:27:01.248Z,13.95
2024-01-09T01:29:30.296Z,13.85
2024-01-09T01:31:57.491Z,11.25
2024-01-09T01:34:25.119Z,12.98
2024-01-09T01:36:52.292Z,12.52
2024-01-09T01:39:19.670Z,14.52
2024-01-09T01:41:46.960Z,14.07
2024-01-09T01:44:18.128Z,16.25
2024-01-09T01:46:48.270Z,10.77
2024-01-09T01:49:18.359Z,13.18
2024-01-09T01:51:47.853Z,17.80
2024-01-09T01:54:15.739Z,20.23
2024-01-09T01:56:43.296Z,13.80
2024-01-09T01:59:12.071Z,12.55
2024-01-09T02:01:39.875Z,12.95
2024-01-09T02:04:10.318Z,12.18
2024-01-09T02:06:38.550Z,13.75
2024-01-09T02:09:06.029Z,11.48
2024-01-09T02:11:34.152Z,10.93
2024-01-09T02:14:01.585Z,13.25
2024-01-09T02:16:29.190Z,10.88
2024-01-09T02:18:56.687Z,13.13
2024-01-09T02:21:25.184Z,12.80
2024-01-09T02:23:52.819Z,12.98
2024-01-09T02:26:39.751Z,15.90
2024-01-09T02:29:14.177Z,20.90
2024-01-09T02:31:43.152Z,14.57
2024-01-09T02:34:16.616Z,12.98
2024-01-09T02:36:43.787Z,11.32
2024-01-09T02:39:11.093Z,15.93
2024-01-09T02:41:39.419Z,15.60
2024-01-09T02:44:07.025Z,15.10
2024-01-09T02:46:34.147Z,9.73
2024-01-09T02:49:03.059Z,15.80
2024-01-09T02:51:30.202Z,12.15
2024-01-09T02:53:57.638Z,16.65
2024-01-09T02:56:24.780Z,17.50
2024-01-09T02:58:52.272Z,17.92
2024-01-09T03:01:19.380Z,17.83
2024-01-09T03:03:46.837Z,16.42
2024-01-09T03:06:15.608Z,14.45
2024-01-09T03:11:10.157Z,16.80
2024-01-09T03:13:39.082Z,18.27
2024-01-09T03:16:11.016Z,20.92
2024-01-09T03:18:38.609Z,13.27
2024-01-09T03:21:06.041Z,18.25
2024-01-09T03:23:35.160Z,15.70
2024-01-09T03:26:02.418Z,18.05
2024-01-09T03:28:29.826Z,14.25
2024-01-09T03:30:56.912Z,18.33
2024-01-09T03:33:24.685Z,18.23
2024-01-09T03:35:52.020Z,19.55
2024-01-09T03:38:19.400Z,22.35
2024-01-09T03:40:48.238Z,15.45
2024-01-09T03:43:15.642Z,18.00
2024-01-09T03:45:42.693Z,17.60
2024-01-09T03:48:10.148Z,17.60
2024-01-09T03:50:37.304Z,18.40
2024-01-09T03:53:04.921Z,25.50
2024-01-09T03:55:32.025Z,16.55
2024-01-09T03:58:00.665Z,19.60
2024-01-09T04:00:27.909Z,17.08
2024-01-09T04:02:55.466Z,16.40
2024-01-09T04:05:22.747Z,15.48
2024-01-09T04:07:50.170Z,23.92
2024-01-09T04:10:17.601Z,17.25
2024-01-09T04:12:45.034Z,17.80
2024-01-09T04:15:14.799Z,20.98
2024-01-09T04:17:42.358Z,19.13
2024-01-09T04:20:13.147Z,19.48
2024-01-09T04:22:40.633Z,19.23
2024-01-09T04:25:09.268Z,22.27
2024-01-09T04:27:36.612Z,19.45
2024-01-09T04:30:05.025Z,18.42
2024-01-09T04:32:33.818Z,23.88
2024-01-09T04:35:01.059Z,21.13
2024-01-09T04:37:28.539Z,21.50
2024-01-09T04:39:55.779Z,20.08
2024-01-09T04:42:23.223Z,23.58
2024-01-09T04:44:50.290Z,23.52
2024-01-09T04:47:17.775Z,18.85
2024-01-09T04:49:46.261Z,16.70
2024-01-09T04:52:14.574Z,20.38
2024-01-09T04:54:41.639Z,24.65
2024-01-09T04:57:09.121Z,21.00
2024-01-09T04:59:36.348Z,32.08
2024-01-09T05:02:04.400Z,26.73
2024-01-09T05:04:31.987Z,22.92
2024-01-09T05:07:00.891Z,20.80
2024-01-09T05:09:28.695Z,18.73
2024-01-09T05:11:56.360Z,25.00
2024-01-09T05:14:23.815Z,23.90
2024-01-09T05:16:51.207Z,23.80
2024-01-09T05:19:18.490Z,19.48
2024-01-09T05:21:46.253Z,24.77
2024-01-09T05:24:14.968Z,17.65
2024-01-09T05:26:42.547Z,21.52
2024-01-09T05:29:10.123Z,19.80
2024-01-09T05:31:42.821Z,21.15
2024-01-09T05:34:09.928Z,19.63
2024-01-09T05:36:37.417Z,18.08
2024-01-09T05:39:04.637Z,16.52
2024-01-09T05:41:33.396Z,22.98
2024-01-09T05:44:00.676Z,18.33
2024-01-09T05:46:28.398Z,18.35
2024-01-09T05:48:55.626Z,17.27
2024-01-09T05:51:23.013Z,18.00
2024-01-09T05:53:51.679Z,19.40
2024-01-09T05:56:19.273Z,20.25
2024-01-09T05:58:47.813Z,20.15
2024-01-09T06:01:15.327Z,24.40
2024-01-09T06:03:42.830Z,18.65
2024-01-09T06:06:10.440Z,21.65
2024-01-09T06:08:37.630Z,17.50
2024-01-09T06:11:05.606Z,16.58
2024-01-09T06:13:32.837Z,19.92
2024-01-09T06:16:01.694Z,20.40
2024-01-09T06:18:28.955Z,23.30
2024-01-09T06:20:56.569Z,18.00
2024-01-09T06:23:23.985Z,20.90
2024-01-09T06:25:51.666Z,17.55
2024-01-09T06:28:18.765Z,29.73
2024-01-09T06:30:46.186Z,18.73
2024-01-09T06:33:14.810Z,25.58
2024-01-09T06:35:42.366Z,28.42
2024-01-09T06:38:09.403Z,21.55
2024-01-09T06:40:36.723Z,22.98
2024-01-09T06:43:03.923Z,22.80
2024-01-09T06:45:31.535Z,26.77
2024-01-09T06:47:58.795Z,23.95
2024-01-09T06:50:33.986Z,19.55
2024-01-09T06:53:05.781Z,22.33
2024-01-09T06:55:33.830Z,22.67
2024-01-09T06:58:03.142Z,17.75
2024-01-09T07:00:30.596Z,18.95
2024-01-09T07:02:58.419Z,21.15
2024-01-09T07:05:27.494Z,25.13
2024-01-09T07:07:54.618Z,20.00
2024-01-09T07:10:22.041Z,20.17
2024-01-09T07:12:49.184Z,16.88
2024-01-09T07:15:17.702Z,19.98
2024-01-09T07:17:46.095Z,20.63
2024-01-09T07:20:13.829Z,21.17
2024-01-09T07:22:44.886Z,17.88
2024-01-09T07:25:15.483Z,20.00
2024-01-09T07:27:42.742Z,19.65
2024-01-09T07:30:11.257Z,21.27
2024-01-09T07:32:39.164Z,25.33
2024-01-09T07:35:07.942Z,22.27
2024-01-09T07:37:35.206Z,26.65
2024-01-09T07:40:07.536Z,21.73
2024-01-09T07:42:42.970Z,22.33
2024-01-09T07:47:40.735Z,19.95
2024-01-09T07:50:09.543Z,16.80
2024-01-09T07:52:36.702Z,26.55
2024-01-09T07:55:06.062Z,20.02
2024-01-09T07:57:34.277Z,19.05
2024-01-09T08:00:01.726Z,21.25
2024-01-09T08:02:29.529Z,20.70
2024-01-09T08:04:58.920Z,22.70
2024-01-09T08:07:26.040Z,21.95
2024-01-09T08:09:53.431Z,32.30
2024-01-09T08:12:21.927Z,24.85
2024-01-09T08:14:50.533Z,27.50
2024-01-09T08:17:18.057Z,25.33
2024-01-09T08:19:46.693Z,25.25
2024-01-09T08:22:14.510Z,26.50
2024-01-09T08:24:42.121Z,28.65
2024-01-09T08:27:09.254Z,26.23
2024-01-09T08:29:38.133Z,26.65
2024-01-09T08:32:07.051Z,24.77
2024-01-09T08:37:01.458Z,28.73
2024-01-09T08:39:28.893Z,22.20
2024-01-09T08:41:56.059Z,18.08
2024-01-09T08:44:26.436Z,29.95
2024-01-09T08:46:54.857Z,22.02
2024-01-09T08:49:23.503Z,23.60
2024-01-09T08:51:50.651Z,27.13
2024-01-09T08:54:18.471Z,24.75
2024-01-09T08:56:45.676Z,21.02
2024-01-09T08:59:13.172Z,25.30
2024-01-09T09:01:40.294Z,27.42
2024-01-09T09:04:09.368Z,25.42
2024-01-09T09:06:36.701Z,20.98
2024-01-09T09:09:07.002Z,30.02
2024-01-09T09:11:34.337Z,24.20
2024-01-09T09:14:02.306Z,29.45
2024-01-09T09:16:30.380Z,31.63
2024-01-09T09:18:58.081Z,28.92
2024-01-09T09:21:26.951Z,28.35
2024-01-09T09:23:54.595Z,26.70
2024-01-09T09:26:21.798Z,27.85
2024-01-09T09:29:00.251Z,24.65
2024-01-09T09:31:39.883Z,29.23
2024-01-09T09:34:08.136Z,24.63
2024-01-09T09:36:38.668Z,20.48
2024-01-09T09:39:06.215Z,23.58
2024-01-09T09:41:34.178Z,26.35
2024-01-09T09:44:04.643Z,24.27
2024-01-09T09:46:34.976Z,22.65
2024-01-09T09:49:04.602Z,24.10
2024-01-09T09:51:32.112Z,21.52
2024-01-09T09:54:03.375Z,16.55
2024-01-09T09:56:32.481Z,20.25
2024-01-09T09:58:59.910Z,23.13
2024-01-09T10:01:29.491Z,25.63
2024-01-09T10:04:00.912Z,20.90
2024-01-09T10:06:29.853Z,22.35
2024-01-09T10:08:57.964Z,25.00
2024-01-09T10:11:26.564Z,23.00
2024-01-09T10:13:56.350Z,27.27
2024-01-09T10:16:23.510Z,21.40
2024-01-09T10:18:55.552Z,21.40
2024-01-09T10:21:23.847Z,24.92
2024-01-09T10:23:55.165Z,19.33
2024-01-09T10:26:26.439Z,28.77
2024-01-09T10:28:59.748Z,21.27
2024-01-09T10:31:26.905Z,22.90
2024-01-09T10:33:55.419Z,21.55
2024-01-09T10:36:23.695Z,23.17
2024-01-09T10:38:51.213Z,16.27
2024-01-09T10:41:19.903Z,15.05
2024-01-09T10:43:48.958Z,14.82
2024-01-09T10:46:17.332Z,17.35
2024-01-09T10:48:46.929Z,14.88
2024-01-09T10:51:16.486Z,17.08
2024-01-09T10:53:46.326Z,18.52
2024-01-09T10:56:18.785Z,22.88
2024-01-09T10:58:47.936Z,15.35
2024-01-09T11:01:15.252Z,17.85
2024-01-09T11:03:45.039Z,20.20
2024-01-09T11:06:15.890Z,20.75
2024-01-09T11:08:46.472Z,20.75
2024-01-09T11:11:16.434Z,20.38
2024-01-09T11:13:47.867Z,22.40
2024-01-09T11:16:19.009Z,20.45
2024-01-09T11:18:48.838Z,20.25
2024-01-09T11:21:18.606Z,23.05
2024-01-09T11:23:56.067Z,22.75
2024-01-09T11:26:28.340Z,30.90
2024-01-09T11:28:57.409Z,23.08
2024-01-09T11:31:25.142Z,19.80
2024-01-09T11:33:56.548Z,18.97
2024-01-09T11:36:28.728Z,21.15
2024-01-09T11:38:57.086Z,16.75
2024-01-09T11:41:31.172Z,18.80
2024-01-09T11:44:04.009Z,20.95
2024-01-09T11:46:33.731Z,24.27
2024-01-09T11:49:03.690Z,21.85
2024-01-09T11:51:32.327Z,22.02
2024-01-09T11:54:00.318Z,20.35
2024-01-09T11:56:28.733Z,20.02
2024-01-09T11:58:56.353Z,20.27
2024-01-09T12:01:23.827Z,18.30
2024-01-09T12:03:53.101Z,16.23
2024-01-09T12:06:22.614Z,21.38
2024-01-09T12:08:50.417Z,20.42
2024-01-09T12:11:18.050Z,20.83
2024-01-09T12:13:45.939Z,21.10
2024-01-09T12:16:17.554Z,19.33
2024-01-09T12:18:49.723Z,18.00
2024-01-09T12:21:17.250Z,18.27
2024-01-09T12:24:02.930Z,20.25
2024-01-09T12:26:34.606Z,67.97
2024-01-09T12:29:03.521Z,52.50
2024-01-09T12:31:30.717Z,69.00
2024-01-09T12:33:58.551Z,93.68
2024-01-09T12:36:28.011Z,26.38
2024-01-09T12:38:58.087Z,26.25
2024-01-09T12:41:27.910Z,21.02
2024-01-09T12:43:55.290Z,23.33
2024-01-09T12:46:22.930Z,26.50
2024-01-09T12:48:51.736Z,21.33
2024-01-09T12:51:20.127Z,29.00
2024-01-09T12:53:48.152Z,21.83
2024-01-09T12:56:17.220Z,20.65
2024-01-09T12:58:46.076Z,27.80
2024-01-09T13:01:13.445Z,25.83
2024-01-09T13:03:41.169Z,31.15
2024-01-09T13:06:11.367Z,22.65
2024-01-09T13:08:42.352Z,23.98
2024-01-09T13:11:10.939Z,27.83
2024-01-09T13:16:08.746Z,22.15
2024-01-09T13:18:36.808Z,23.00
2024-01-09T13:21:04.591Z,19.98
2024-01-09T13:26:03.817Z,17.65
2024-01-09T13:28:31.608Z,18.65
2024-01-09T13:31:00.551Z,20.90
2024-01-09T13:33:28.769Z,18.75
2024-01-09T13:35:59.098Z,24.80
2024-01-09T13:38:26.376Z,24.10
2024-01-09T13:40:53.513Z,21.20
2024-01-09T13:43:26.266Z,20.52
2024-01-09T13:45:55.352Z,24.70
2024-01-09T13:48:24.145Z,23.27
2024-01-09T13:53:23.476Z,21.52
2024-01-09T13:55:52.161Z,23.75
2024-01-09T13:58:19.765Z,21.30
2024-01-09T14:00:46.984Z,27.08
2024-01-09T14:03:15.227Z,22.83
2024-01-09T14:05:44.170Z,28.88
2024-01-09T14:08:11.914Z,21.52
2024-01-09T14:10:39.247Z,27.48
2024-01-09T14:13:08.631Z,28.33
2024-01-09T14:15:36.621Z,26.88
2024-01-09T14:18:06.253Z,25.88
2024-01-09T14:20:33.507Z,34.92
2024-01-09T14:23:02.395Z,31.63
2024-01-09T14:25:29.970Z,37.20
2024-01-09T14:27:57.451Z,39.00
2024-01-09T14:30:24.911Z,34.78
2024-01-09T14:32:52.458Z,36.55
2024-01-09T14:35:20.620Z,29.33
2024-01-09T14:37:48.101Z,28.27
2024-01-09T14:40:16.808Z,29.67
2024-01-09T14:42:44.163Z,24.90
2024-01-09T14:45:13.657Z,26.88
2024-01-09T14:47:44.523Z,26.05
2024-01-09T14:50:11.796Z,27.38
2024-01-09T14:52:39.354Z,33.97
2024-01-09T14:55:07.591Z,26.35
2024-01-09T14:57:36.307Z,28.70
2024-01-09T15:00:06.046Z,26.85
2024-01-09T15:02:33.701Z,22.88
2024-01-09T15:05:02.229Z,24.15
2024-01-09T15:07:29.908Z,20.20
2024-01-09T15:09:57.010Z,20.73
2024-01-09T15:12:28.986Z,29.20
2024-01-09T15:14:58.940Z,22.48
2024-01-09T15:17:26.433Z,24.08
2024-01-09T15:19:53.652Z,28.30
2024-01-09T15:22:20.891Z,26.25
2024-01-09T15:24:48.531Z,26.25
2024-01-09T15:27:15.908Z,29.27
2024-01-09T15:29:43.120Z,23.40
2024-01-09T15:32:11.961Z,25.73
2024-01-09T15:34:39.169Z,24.10
2024-01-09T15:37:06.499Z,26.30
2024-01-09T15:39:33.599Z,29.55
2024-01-09T15:42:01.122Z,25.55
2024-01-09T15:44:29.984Z,33.13
2024-01-09T15:46:57.341Z,32.22
2024-01-09T15:49:26.044Z,33.83
2024-01-09T15:51:54.301Z,29.00
2024-01-09T15:54:21.521Z,29.80
2024-01-09T15:56:49.446Z,27.67
2024-01-09T15:59:16.836Z,24.52
2024-01-09T16:01:45.701Z,22.58
2024-01-09T16:04:12.901Z,24.83
2024-01-09T16:06:43.129Z,28.50
2024-01-09T16:09:13.376Z,25.85
2024-01-09T16:11:48.142Z,22.35
2024-01-09T16:14:16.884Z,21.63
2024-01-09T16:19:11.155Z,17.30
2024-01-09T16:21:39.140Z,20.25
2024-01-09T16:24:10.462Z,19.30
2024-01-09T16:26:38.046Z,25.05
2024-01-09T16:29:05.379Z,20.33
2024-01-09T16:34:26.295Z,22.80
2024-01-09T16:36:53.778Z,25.38
2024-01-09T16:39:25.216Z,19.83
2024-01-09T16:41:55.097Z,18.25
2024-01-09T16:44:23.420Z,26.05
2024-01-09T16:46:50.787Z,26.88
2024-01-09T16:49:19.220Z,19.52
2024-01-09T16:51:47.402Z,25.02
2024-01-09T16:54:14.514Z,26.33
2024-01-09T16:56:43.249Z,27.08
2024-01-09T16:59:10.387Z,26.08
2024-01-09T17:01:37.854Z,26.80
2024-01-09T17:04:05.208Z,26.02
2024-01-09T17:06:32.608Z,29.00
2024-01-09T17:09:01.435Z,26.58
2024-01-09T17:11:31.534Z,25.42
2024-01-09T17:14:01.410Z,32.85
2024-01-09T17:16:53.411Z,25.27
2024-01-09T17:19:31.941Z,25.47
2024-01-09T17:21:59.672Z,26.10
2024-01-09T17:24:30.906Z,28.60
2024-01-09T17:27:03.551Z,27.50
2024-01-09T17:29:36.842Z,30.33
2024-01-09T17:32:27.658Z,28.08
2024-01-09T17:35:32.818Z,27.15
2024-01-09T17:38:17.965Z,26.90
2024-01-09T17:40:49.669Z,25.02
2024-01-09T17:43:21.883Z,20.17
2024-01-09T17:46:41.736Z,25.13
2024-01-09T17:49:10.511Z,23.23
2024-01-09T17:51:40.036Z,22.73
2024-01-09T17:56:50.640Z,20.08
2024-01-09T18:05:18.830Z,28.17
2024-01-09T18:07:46.345Z,40.55
2024-01-09T18:10:14.213Z,32.33
2024-01-09T18:12:53.205Z,24.88
2024-01-09T18:15:23.110Z,21.73
2024-01-09T18:17:52.093Z,25.05
2024-01-09T18:20:20.728Z,31.13
2024-01-09T18:22:48.203Z,31.45
2024-01-09T18:25:15.669Z,36.78
2024-01-09T18:27:44.159Z,37.63
2024-01-09T18:30:12.834Z,37.60
2024-01-09T18:35:09.970Z,34.60
2024-01-09T18:37:38.910Z,34.92
2024-01-09T18:40:10.075Z,38.92
2024-01-09T18:42:37.480Z,40.63
2024-01-09T18:45:05.661Z,43.72
2024-01-09T18:47:39.362Z,48.65
2024-01-09T18:50:08.245Z,40.50
2024-01-09T18:52:36.051Z,43.25
2024-01-09T18:55:07.928Z,36.10
2024-01-09T18:57:35.890Z,37.13
2024-01-09T19:00:06.579Z,39.85
2024-01-09T19:02:35.168Z,38.88
2024-01-09T19:05:08.314Z,40.08
2024-01-09T19:07:36.063Z,36.85
2024-01-09T19:10:05.284Z,39.08
2024-01-09T19:12:32.744Z,45.58
2024-01-09T19:14:59.873Z,42.20
2024-01-09T19:17:27.337Z,36.92
2024-01-09T19:19:55.709Z,36.47
2024-01-09T19:22:23.309Z,40.33
2024-01-09T19:24:51.593Z,29.50
2024-01-09T19:27:20.696Z,36.80
2024-01-09T19:29:49.674Z,28.83
2024-01-09T19:32:18.349Z,26.90
2024-01-09T19:34:45.632Z,32.28
2024-01-09T19:37:15.980Z,29.70
2024-01-09T19:39:44.232Z,35.10
2024-01-09T19:42:12.024Z,31.25
2024-01-09T19:44:40.593Z,31.05
2024-01-09T19:47:08.133Z,37.85
2024-01-09T19:49:35.553Z,39.70
2024-01-09T19:52:06.030Z,30.33
2024-01-09T19:54:33.337Z,29.80
2024-01-09T19:57:00.760Z,28.45
2024-01-09T19:59:27.859Z,22.95
2024-01-09T20:01:56.735Z,31.15
2024-01-09T20:04:24.211Z,27.75
2024-01-09T20:06:52.374Z,32.65
2024-01-09T20:09:19.872Z,35.25
2024-01-09T20:11:47.335Z,63.28
2024-01-09T20:14:14.448Z,56.63
2024-01-09T20:16:42.021Z,47.72
2024-01-09T20:19:10.877Z,38.15
2024-01-09T20:24:08.504Z,29.85
2024-01-09T20:26:36.348Z,26.38
2024-01-09T20:29:03.562Z,150.43
2024-01-09T20:31:33.795Z,219.13
2024-01-09T20:34:00.986Z,100.82
2024-01-09T20:36:29.693Z,50.55
2024-01-09T20:38:57.862Z,44.33
2024-01-09T20:41:25.339Z,42.22
2024-01-09T20:43:53.814Z,42.15
2024-01-09T20:46:21.311Z,39.65
2024-01-09T20:48:48.366Z,45.25
2024-01-09T20:51:21.563Z,42.55
2024-01-09T20:53:50.337Z,38.53
2024-01-09T20:58:45.320Z,41.20
2024-01-09T21:01:12.917Z,42.35
2024-01-09T21:03:40.246Z,47.53
2024-01-09T21:06:08.546Z,42.97
2024-01-09T21:08:35.952Z,45.30
2024-01-09T21:11:06.208Z,49.63
2024-01-09T21:13:36.156Z,49.42
2024-01-09T21:16:03.936Z,44.17
2024-01-09T21:18:31.152Z,48.33
2024-01-09T21:21:03.441Z,54.83
2024-01-09T21:23:35.613Z,46.17
2024-01-09T21:26:12.035Z,59.92
2024-01-09T21:28:39.220Z,44.90
2024-01-09T21:31:06.792Z,45.65
2024-01-09T21:33:34.909Z,48.78
2024-01-09T21:36:04.691Z,48.75
2024-01-09T21:38:32.415Z,48.22
2024-01-09T21:41:00.390Z,42.10
2024-01-09T21:43:29.622Z,43.95
2024-01-09T21:48:24.244Z,40.45
2024-01-09T21:50:51.805Z,39.60
2024-01-09T21:53:19.063Z,42.30
2024-01-09T21:55:46.663Z,40.30
2024-01-09T21:58:14.533Z,48.60
2024-01-09T22:00:43.493Z,40.03
2024-01-09T22:03:32.738Z,42.30
2024-01-09T22:06:00.307Z,43.33
2024-01-09T22:08:27.364Z,40.00
2024-01-09T22:10:55.095Z,39.47
2024-01-09T22:13:22.090Z,39.15
2024-01-09T22:15:52.501Z,43.60
2024-01-09T22:18:20.650Z,42.53
2024-01-09T22:20:48.175Z,52.20
2024-01-09T22:23:15.492Z,51.60
2024-01-09T22:25:43.180Z,50.72
2024-01-09T22:28:12.385Z,60.08
2024-01-09T22:30:42.941Z,47.65
2024-01-09T22:33:12.054Z,53.05
2024-01-09T22:35:41.471Z,46.05
2024-01-09T22:40:36.069Z,46.97
2024-01-09T22:43:03.346Z,55.78
2024-01-09T22:45:30.789Z,53.80
2024-01-09T22:47:57.793Z,50.28
2024-01-09T22:51:22.042Z,61.42
2024-01-09T22:53:49.412Z,63.10
2024-01-09T22:56:17.736Z,52.47
2024-01-09T22:58:45.638Z,60.53
2024-01-09T23:01:12.975Z,63.70
2024-01-09T23:03:40.739Z,61.67
2024-01-09T23:06:09.530Z,60.28
2024-01-09T23:08:36.900Z,44.85
2024-01-09T23:11:04.203Z,72.25
2024-01-09T23:13:31.501Z,60.80
2024-01-09T23:15:58.708Z,53.58
2024-01-09T23:18:26.081Z,50.28
2024-01-09T23:21:25.431Z,51.83
2024-01-09T23:23:54.725Z,54.40
2024-01-09T23:26:21.872Z,49.45
2024-01-09T23:28:49.546Z,55.65
2024-01-09T23:31:21.044Z,45.42
2024-01-09T23:33:48.510Z,38.33
2024-01-09T23:36:15.583Z,43.38
2024-01-09T23:38:43.129Z,54.00
2024-01-09T23:41:22.773Z,51.75
2024-01-09T23:43:50.383Z,60.97
2024-01-09T23:46:17.484Z,52.83
2024-01-09T23:48:44.986Z,49.15
2024-01-09T23:51:34.038Z,53.97
2024-01-09T23:54:01.499Z,39.85
2024-01-09T23:56:29.975Z,42.08
2024-01-09T23:58:57.363Z,50.72
